Time;durP1;ratioP1;P1;durP2;ratioP2;P2;SDS_P1;SDS_P2;PMS_P1;PMS_P2;Temp;Humidity;BMP_temperature;BMP_pressure;BME280_temperature;BME280_humidity;BME280_pressure;Samples;Min_cycle;Max_cycle;Signal;HPM_P1;HPM_P2
2023/03/31 00:00:10;;;;;;;3.17;1.45;;;16.90;79.20;;;;;;5053474;28;20229;-64
2023/03/31 00:02:59;;;;;;;1.35;0.98;;;16.90;79.20;;;;;;5053674;28;20213;-64
2023/03/31 00:05:52;;;;;;;1.42;1.17;;;16.90;79.20;;;;;;5055437;28;20229;-64
2023/03/31 00:08:40;;;;;;;1.83;1.10;;;17.00;92.10;;;;;;5055263;28;20229;-64
2023/03/31 00:11:29;;;;;;;3.42;1.35;;;16.90;79.30;;;;;;5055775;28;20251;-64
2023/03/31 00:14:19;;;;;;;1.20;1.10;;;16.80;79.10;;;;;;5053096;28;20682;-64
2023/03/31 00:17:07;;;;;;;1.17;1.08;;;16.90;79.10;;;;;;5053111;28;20201;-64
2023/03/31 00:19:59;;;;;;;1.90;1.02;;;16.90;79.30;;;;;;5053179;28;20800;-64
2023/03/31 00:22:48;;;;;;;1.73;1.20;;;16.90;79.20;;;;;;5052745;28;20198;-65
2023/03/31 00:25:40;;;;;;;1.30;1.20;;;16.90;79.40;;;;;;5052557;28;20288;-65
2023/03/31 00:28:28;;;;;;;1.10;1.00;;;16.90;91.70;;;;;;5052370;28;20194;-64
2023/03/31 00:31:16;;;;;;;1.08;0.98;;;16.80;79.20;;;;;;5053401;28;20232;-65
2023/03/31 00:34:05;;;;;;;1.10;1.00;;;16.90;79.30;;;;;;5052656;28;20207;-64
2023/03/31 00:36:55;;;;;;;2.35;1.20;;;16.80;79.10;;;;;;5052849;28;20267;-64
2023/03/31 00:39:45;;;;;;;1.95;1.00;;;16.90;79.20;;;;;;5053439;28;20221;-65
2023/03/31 00:42:33;;;;;;;1.45;1.27;;;16.90;79.20;;;;;;5052358;28;20200;-64
2023/03/31 00:45:28;;;;;;;1.73;1.10;;;16.90;79.20;;;;;;5052744;28;20206;-64
2023/03/31 00:48:18;;;;;;;1.20;0.90;;;16.90;79.20;;;;;;5051319;28;20251;-64
2023/03/31 00:51:07;;;;;;;1.98;1.20;;;16.90;79.20;;;;;;5053082;28;20585;-65
2023/03/31 00:53:59;;;;;;;0.80;0.80;;;16.90;79.30;;;;;;5052212;28;20280;-64
2023/03/31 00:56:51;;;;;;;1.38;1.33;;;16.80;79.10;;;;;;5055139;28;20201;-65
2023/03/31 00:59:43;;;;;;;1.00;0.90;;;16.80;79.10;;;;;;5072462;28;20236;-64
2023/03/31 01:02:31;;;;;;;1.55;0.93;;;16.80;79.00;;;;;;5072132;28;20359;-65
2023/03/31 01:05:23;;;;;;;1.85;1.15;;;16.80;79.00;;;;;;5068394;28;20201;-65
2023/03/31 01:08:12;;;;;;;2.25;1.05;;;16.80;79.00;;;;;;5059528;28;20216;-65
2023/03/31 01:11:03;;;;;;;1.63;1.10;;;16.90;79.10;;;;;;5052233;28;20255;-65
2023/03/31 01:13:55;;;;;;;2.17;1.10;;;16.70;78.90;;;;;;5050649;28;20308;-65
2023/03/31 01:16:43;;;;;;;1.40;0.90;;;16.80;79.00;;;;;;5050787;28;20611;-64
2023/03/31 01:19:42;;;;;;;2.22;1.10;;;16.80;78.90;;;;;;5051827;28;20221;-64
2023/03/31 01:23:04;;;;;;;2.60;1.13;;;16.80;78.90;;;;;;5049547;28;20259;-64
2023/03/31 01:26:28;;;;;;;2.58;1.05;;;16.80;78.90;;;;;;5051200;28;20212;-64
2023/03/31 01:29:40;;;;;;;0.90;0.90;;;16.80;78.90;;;;;;5061890;28;20298;-65
2023/03/31 01:33:02;;;;;;;1.52;0.90;;;16.80;78.80;;;;;;5056700;28;20193;-64
2023/03/31 01:36:21;;;;;;;3.50;1.02;;;16.80;79.00;;;;;;5053202;28;20198;-65
2023/03/31 01:39:45;;;;;;;1.77;1.05;;;16.80;78.90;;;;;;5051284;28;20252;-64
2023/03/31 01:42:35;;;;;;;3.03;1.00;;;16.80;79.00;;;;;;5052083;28;20232;-65
2023/03/31 01:45:33;;;;;;;1.40;1.08;;;16.80;78.90;;;;;;5051669;28;20193;-64
2023/03/31 01:48:32;;;;;;;1.35;1.00;;;16.80;79.00;;;;;;5051228;28;20225;-64
2023/03/31 01:51:31;;;;;;;1.13;1.02;;;16.80;79.00;;;;;;5050928;28;20205;-64
2023/03/31 01:54:24;;;;;;;1.80;0.93;;;16.70;79.00;;;;;;5051049;28;20238;-64
2023/03/31 01:57:17;;;;;;;1.00;0.95;;;16.70;79.00;;;;;;5056855;28;20722;-64
2023/03/31 02:00:11;;;;;;;1.05;0.90;;;16.70;78.90;;;;;;5071234;28;20338;-64
2023/03/31 02:03:06;;;;;;;1.15;0.80;;;16.80;79.00;;;;;;5071816;28;20687;-64
2023/03/31 02:05:58;;;;;;;2.95;1.00;;;16.80;79.10;;;;;;5070314;28;20692;-64
2023/03/31 02:08:50;;;;;;;0.80;0.75;;;16.70;79.20;;;;;;5071627;28;20592;-64
2023/03/31 02:11:39;;;;;;;1.23;1.00;;;16.80;79.10;;;;;;5070059;28;20310;-64
2023/03/31 02:14:31;;;;;;;1.40;1.02;;;16.70;79.20;;;;;;5071072;28;20201;-64
2023/03/31 02:17:28;;;;;;;1.25;0.95;;;16.80;79.20;;;;;;5071055;28;20205;-65
2023/03/31 02:20:21;;;;;;;1.23;0.80;;;16.70;79.10;;;;;;5070823;28;20225;-64
2023/03/31 02:23:12;;;;;;;1.17;1.02;;;16.70;79.20;;;;;;5071227;28;20249;-64
2023/03/31 02:26:04;;;;;;;0.98;0.98;;;16.70;79.20;;;;;;5072517;28;20597;-64
2023/03/31 02:28:53;;;;;;;1.00;0.90;;;16.80;79.40;;;;;;5075740;28;20451;-64
2023/03/31 02:31:48;;;;;;;1.42;0.82;;;16.70;79.20;;;;;;5075700;28;20200;-64
2023/03/31 02:34:36;;;;;;;0.80;0.80;;;16.70;79.40;;;;;;5071657;28;20231;-64
2023/03/31 02:37:25;;;;;;;1.35;1.20;;;16.70;79.30;;;;;;5069800;28;20196;-64
2023/03/31 02:40:17;;;;;;;1.95;1.15;;;16.70;79.40;;;;;;5071674;28;20274;-64
2023/03/31 02:43:05;;;;;;;1.92;0.90;;;16.70;79.40;;;;;;5070644;28;20205;-65
2023/03/31 02:45:53;;;;;;;1.73;0.80;;;16.70;79.40;;;;;;5070837;28;20246;-64
2023/03/31 02:48:46;;;;;;;2.00;1.08;;;16.80;79.40;;;;;;5070399;28;20794;-64
2023/03/31 02:51:54;;;;;;;0.80;0.80;;;16.70;79.40;;;;;;5074522;28;20223;-64
2023/03/31 02:55:12;;;;;;;0.88;0.88;;;16.70;79.40;;;;;;5074871;28;20285;-64
2023/03/31 02:58:33;;;;;;;2.47;0.90;;;16.70;79.40;;;;;;5062939;28;20212;-64
2023/03/31 03:01:39;;;;;;;1.20;0.80;;;16.70;79.40;;;;;;5055085;28;20197;-64
2023/03/31 03:05:04;;;;;;;1.10;0.80;;;16.70;79.40;;;;;;5061855;28;20283;-64
2023/03/31 03:07:58;;;;;;;1.20;0.80;;;16.70;79.50;;;;;;5075090;28;20323;-64
2023/03/31 03:11:01;;;;;;;1.00;0.90;;;16.70;79.60;;;;;;5075362;28;20215;-64
2023/03/31 03:13:52;;;;;;;1.65;0.90;;;16.70;79.60;;;;;;5062037;28;20197;-65
2023/03/31 03:16:44;;;;;;;3.55;1.00;;;16.70;79.60;;;;;;5053289;28;20201;-64
2023/03/31 03:19:32;;;;;;;1.80;1.02;;;16.70;79.70;;;;;;5055004;28;20252;-64
2023/03/31 03:22:22;;;;;;;1.00;1.00;;;16.70;79.80;;;;;;5054553;28;20282;-65
2023/03/31 03:25:13;;;;;;;1.73;1.00;;;16.70;79.80;;;;;;5055126;28;20232;-64
2023/03/31 03:28:01;;;;;;;4.63;1.20;;;16.70;79.80;;;;;;5067592;28;20257;-64
2023/03/31 03:30:49;;;;;;;1.40;1.00;;;16.70;79.20;;;;;;5069784;28;20682;-64
2023/03/31 03:33:37;;;;;;;1.80;1.10;;;16.70;79.70;;;;;;5064918;28;20201;-64
2023/03/31 03:36:25;;;;;;;1.20;0.80;;;16.70;79.90;;;;;;5063027;28;20341;-64
2023/03/31 03:39:15;;;;;;;3.10;1.00;;;16.70;79.90;;;;;;5054908;28;20593;-64
2023/03/31 03:42:03;;;;;;;1.05;0.95;;;16.70;80.00;;;;;;5054330;28;20702;-65
2023/03/31 03:44:51;;;;;;;1.55;1.10;;;16.70;80.00;;;;;;5054919;28;20201;-65
2023/03/31 03:47:39;;;;;;;1.98;1.45;;;16.70;79.90;;;;;;5053940;28;20284;-64
2023/03/31 03:50:27;;;;;;;1.08;1.00;;;16.70;80.00;;;;;;5053313;28;20226;-65
2023/03/31 03:53:15;;;;;;;0.90;0.90;;;16.70;80.00;;;;;;5053777;28;20331;-64
2023/03/31 03:56:05;;;;;;;0.80;0.80;;;16.70;80.20;;;;;;5054449;28;20202;-64
2023/03/31 03:58:53;;;;;;;2.72;1.17;;;16.70;89.50;;;;;;5077911;22;20547;31
2023/03/31 04:01:41;;;;;;;5.05;1.40;;;16.70;79.60;;;;;;5012541;28;20207;-65
2023/03/31 04:04:30;;;;;;;1.50;0.90;;;16.70;80.20;;;;;;5015314;28;20246;-65
2023/03/31 04:07:18;;;;;;;1.60;0.90;;;16.70;80.20;;;;;;5015530;28;20526;-65
2023/03/31 04:10:07;;;;;;;3.55;1.02;;;16.60;80.00;;;;;;5025898;28;20678;-64
2023/03/31 04:12:57;;;;;;;1.35;0.80;;;16.70;80.20;;;;;;5035113;28;20237;-66
2023/03/31 04:15:45;;;;;;;1.20;0.82;;;16.70;80.20;;;;;;5034956;28;20260;-64
2023/03/31 04:18:36;;;;;;;1.40;1.00;;;16.60;80.00;;;;;;5034672;28;20694;-64
2023/03/31 04:21:24;;;;;;;2.15;1.10;;;16.70;80.30;;;;;;5035297;28;20364;-65
2023/03/31 04:24:14;;;;;;;1.10;0.90;;;16.60;80.20;;;;;;5035208;28;20224;-64
2023/03/31 04:27:06;;;;;;;2.95;0.80;;;16.70;80.30;;;;;;5035472;28;20198;-64
2023/03/31 04:29:55;;;;;;;1.58;0.80;;;16.70;80.20;;;;;;5034055;28;20217;-65
2023/03/31 04:32:43;;;;;;;2.42;1.15;;;16.60;80.10;;;;;;5034090;28;20252;-64
2023/03/31 04:35:47;;;;;;;1.02;0.90;;;16.60;80.10;;;;;;5033695;28;20324;-64
2023/03/31 04:38:35;;;;;;;2.78;0.98;;;16.60;80.00;;;;;;5035142;28;20259;-64
2023/03/31 04:41:24;;;;;;;1.77;1.08;;;16.60;80.00;;;;;;5033339;28;20253;-65
2023/03/31 04:44:12;;;;;;;2.22;1.00;;;16.60;80.00;;;;;;5035718;28;20233;-65
2023/03/31 04:47:01;;;;;;;2.40;1.50;;;16.60;80.00;;;;;;5034165;28;20206;-65
2023/03/31 04:49:50;;;;;;;2.80;0.93;;;16.60;79.90;;;;;;5034194;28;20340;-64
2023/03/31 04:52:38;;;;;;;1.50;1.13;;;16.60;80.00;;;;;;5033443;28;20202;-65
2023/03/31 04:55:27;;;;;;;6.80;1.05;;;16.60;80.20;;;;;;5034169;28;20209;-64
2023/03/31 04:58:15;;;;;;;1.02;0.80;;;16.60;80.00;;;;;;5035295;28;20584;-64
2023/03/31 05:01:05;;;;;;;1.90;1.02;;;16.60;80.00;;;;;;5033887;28;20303;-65
2023/03/31 05:03:54;;;;;;;2.30;0.90;;;16.60;80.00;;;;;;5034228;28;20277;-65
2023/03/31 05:06:42;;;;;;;1.50;0.90;;;16.60;80.10;;;;;;5033998;28;20279;-64
2023/03/31 05:09:30;;;;;;;5.43;3.78;;;16.60;80.10;;;;;;5033292;28;20759;-64
2023/03/31 05:12:21;;;;;;;3.10;2.80;;;16.60;80.00;;;;;;5033321;28;20289;-65
2023/03/31 05:15:10;;;;;;;1.65;1.50;;;16.60;80.00;;;;;;5033888;28;20208;-65
2023/03/31 05:17:58;;;;;;;3.53;2.78;;;16.60;80.10;;;;;;5033587;28;20232;-63
2023/03/31 05:20:48;;;;;;;10.52;4.70;;;16.60;80.00;;;;;;5034394;28;20709;-64
2023/03/31 05:23:36;;;;;;;14.05;8.23;;;16.60;80.20;;;;;;5033790;28;20291;-64
2023/03/31 05:26:24;;;;;;;10.02;4.30;;;16.60;80.10;;;;;;5034132;28;20721;-65
2023/03/31 05:29:12;;;;;;;6.57;2.90;;;16.60;80.20;;;;;;5033212;28;20283;-65
2023/03/31 05:32:00;;;;;;;4.03;2.38;;;16.60;80.10;;;;;;5033359;28;20221;-65
2023/03/31 05:34:51;;;;;;;7.32;1.60;;;16.60;80.30;;;;;;5033362;28;20205;-64
2023/03/31 05:37:40;;;;;;;3.35;1.33;;;16.60;80.30;;;;;;5033965;28;20205;-64
2023/03/31 05:40:28;;;;;;;87.60;10.48;;;16.60;80.20;;;;;;5028483;28;20730;-65
2023/03/31 05:43:16;;;;;;;34.42;5.18;;;16.60;80.20;;;;;;5031820;28;20328;-64
2023/03/31 05:46:05;;;;;;;48.08;5.63;;;16.50;80.20;;;;;;5032852;28;20238;-65
2023/03/31 05:48:54;;;;;;;33.47;5.65;;;16.50;89.40;;;;;;5015649;28;20209;-64
2023/03/31 05:51:42;;;;;;;22.70;6.72;;;16.60;80.40;;;;;;5022775;28;20225;-66
2023/03/31 05:54:31;;;;;;;28.15;7.55;;;16.60;80.30;;;;;;5034735;28;20279;-65
2023/03/31 05:57:19;;;;;;;12.15;4.38;;;16.60;80.40;;;;;;5028411;28;20198;-64
2023/03/31 06:00:10;;;;;;;14.07;3.22;;;16.60;80.40;;;;;;5014163;28;20316;-65
2023/03/31 06:02:58;;;;;;;7.82;2.75;;;16.60;80.30;;;;;;5014434;28;20207;-66
2023/03/31 06:05:48;;;;;;;6.53;1.70;;;16.60;80.40;;;;;;5013606;28;20617;-64
2023/03/31 06:08:36;;;;;;;8.55;1.73;;;16.60;80.40;;;;;;5014419;28;20214;-66
2023/03/31 06:11:26;;;;;;;19.30;2.92;;;16.60;80.40;;;;;;5014086;28;20258;-65
2023/03/31 06:14:14;;;;;;;12.75;2.50;;;16.60;80.60;;;;;;5014668;28;20238;-65
2023/03/31 06:17:02;;;;;;;9.30;1.60;;;16.60;80.50;;;;;;5014138;28;20282;-65
2023/03/31 06:19:50;;;;;;;10.48;2.53;;;16.60;80.70;;;;;;5014427;28;20320;-65
2023/03/31 06:22:38;;;;;;;29.33;4.10;;;16.60;80.70;;;;;;5014495;28;20296;-65
2023/03/31 06:25:26;;;;;;;14.43;3.08;;;16.60;80.90;;;;;;5018002;28;20211;-65
2023/03/31 06:28:21;;;;;;;13.30;2.38;;;16.70;81.00;;;;;;5017822;28;20205;-65
2023/03/31 06:31:11;;;;;;;10.93;3.10;;;16.70;81.10;;;;;;5017242;28;20308;-65
2023/03/31 06:33:59;;;;;;;13.77;3.60;;;16.70;81.20;;;;;;5020051;28;20581;-65
2023/03/31 06:36:48;;;;;;;14.02;3.63;;;16.70;81.40;;;;;;5023976;28;20198;-65
2023/03/31 06:39:36;;;;;;;15.10;3.63;;;16.70;81.40;;;;;;5037918;28;20229;-64
2023/03/31 06:42:24;;;;;;;28.48;8.77;;;16.70;81.30;;;;;;5037502;28;20289;-65
2023/03/31 06:45:13;;;;;;;17.88;5.25;;;16.70;81.40;;;;;;5037134;28;20637;-65
2023/03/31 06:48:01;;;;;;;554.75;95.63;;;16.70;81.30;;;;;;5035723;28;20623;-65
2023/03/31 06:50:49;;;;;;;351.52;54.97;;;16.70;81.40;;;;;;5035722;28;20710;-65
2023/03/31 06:53:38;;;;;;;179.25;27.88;;;16.80;81.50;;;;;;5035641;28;20205;-65
2023/03/31 06:56:27;;;;;;;89.63;13.65;;;16.80;81.30;;;;;;5035825;28;20210;-65
2023/03/31 06:59:15;;;;;;;44.45;8.80;;;16.80;81.30;;;;;;5030962;28;20242;-66
2023/03/31 07:02:04;;;;;;;27.80;5.05;;;16.80;81.30;;;;;;5036270;28;20293;-65
2023/03/31 07:04:52;;;;;;;20.17;3.70;;;16.80;81.40;;;;;;5030613;28;20226;-66
2023/03/31 07:07:40;;;;;;;13.88;2.40;;;16.80;81.10;;;;;;5035250;28;20281;-66
2023/03/31 07:10:32;;;;;;;7.93;3.13;;;16.80;81.30;;;;;;5029605;28;20304;-65
2023/03/31 07:13:20;;;;;;;14.20;5.63;;;16.80;81.10;;;;;;5018257;28;20207;-66
2023/03/31 07:16:09;;;;;;;117.05;20.00;;;16.90;81.20;;;;;;5016130;28;20201;-66
2023/03/31 07:19:03;;;;;;;73.93;10.70;;;17.00;90.10;;;;;;5023790;28;20202;-66
2023/03/31 07:21:52;;;;;;;61.78;8.02;;;16.90;81.00;;;;;;5017053;28;20655;-64
2023/03/31 07:24:40;;;;;;;25.73;3.78;;;16.90;81.10;;;;;;5016074;28;20310;-63
2023/03/31 07:27:28;;;;;;;17.35;3.55;;;16.90;81.10;;;;;;5014510;28;20279;-65
2023/03/31 07:30:18;;;;;;;13.10;2.80;;;16.80;80.80;;;;;;5015014;28;20231;-64
2023/03/31 07:33:06;;;;;;;11.60;2.03;;;16.90;80.70;;;;;;5024919;28;20226;-64
2023/03/31 07:35:55;;;;;;;11.90;2.38;;;16.90;80.80;;;;;;5015357;28;20207;-64
2023/03/31 07:38:59;;;;;;;10.07;2.30;;;17.00;90.00;;;;;;5020265;28;20243;-66
2023/03/31 07:41:47;;;;;;;7.03;2.03;;;16.90;80.60;;;;;;5027644;28;20406;-65
2023/03/31 07:44:36;;;;;;;5.95;1.50;;;16.90;80.60;;;;;;5033282;28;20198;-65
2023/03/31 07:47:24;;;;;;;4.82;1.98;;;17.00;80.80;;;;;;5023474;28;20271;-65
2023/03/31 07:50:13;;;;;;;3.58;1.65;;;17.00;80.70;;;;;;5032336;28;20229;-69
2023/03/31 07:53:03;;;;;;;8.57;2.00;;;17.00;80.50;;;;;;5035094;28;20565;-65
2023/03/31 07:55:51;;;;;;;7.47;2.30;;;17.00;80.40;;;;;;5033072;28;20233;-65
2023/03/31 07:58:39;;;;;;;8.30;2.13;;;17.00;80.50;;;;;;5019609;28;20257;-64
2023/03/31 08:01:28;;;;;;;4.97;1.80;;;17.00;80.60;;;;;;5014660;28;20223;-65
2023/03/31 08:04:16;;;;;;;11.18;1.98;;;17.00;80.40;;;;;;5015478;28;20630;-65
2023/03/31 08:07:04;;;;;;;211.38;40.45;;;17.00;80.30;;;;;;5017441;28;20209;-64
2023/03/31 08:09:54;;;;;;;67.30;10.27;;;17.00;80.30;;;;;;5014999;28;20222;-66
2023/03/31 08:12:42;;;;;;;24.00;5.20;;;17.10;80.60;;;;;;5015170;28;20278;-66
2023/03/31 08:15:30;;;;;;;25.15;4.50;;;17.10;80.50;;;;;;5015781;28;20292;-65
2023/03/31 08:18:18;;;;;;;23.27;10.27;;;17.10;80.50;;;;;;5015181;28;20203;-64
2023/03/31 08:21:08;;;;;;;32.50;9.75;;;17.10;80.30;;;;;;5013177;28;20227;-68
2023/03/31 08:23:56;;;;;;;31.30;7.00;;;17.30;80.50;;;;;;5013077;28;20209;-64
2023/03/31 08:26:46;;;;;;;26.08;6.28;;;17.10;80.20;;;;;;5016533;28;20209;-65
2023/03/31 08:29:34;;;;;;;18.58;5.25;;;17.10;80.10;;;;;;5016300;28;20245;-66
2023/03/31 08:32:23;;;;;;;18.10;4.32;;;17.10;80.00;;;;;;5011360;28;20195;-66
2023/03/31 08:35:12;;;;;;;37.55;7.07;;;17.10;80.10;;;;;;5011177;28;20202;-65
2023/03/31 08:38:00;;;;;;;114.30;12.52;;;17.20;80.00;;;;;;5012520;28;20234;-66
2023/03/31 08:40:48;;;;;;;50.33;8.18;;;17.20;80.20;;;;;;5014536;28;20226;-65
2023/03/31 08:43:42;;;;;;;97.25;15.07;;;17.30;80.20;;;;;;5013891;28;20639;-66
2023/03/31 08:46:34;;;;;;;117.25;18.23;;;17.10;80.10;;;;;;5010253;28;20261;-66
2023/03/31 08:49:24;;;;;;;47.55;8.20;;;17.10;80.00;;;;;;5004472;28;20223;-68
2023/03/31 08:52:16;;;;;;;60.08;10.68;;;17.20;79.80;;;;;;5012090;28;20333;-67
2023/03/31 08:55:12;;;;;;;50.35;13.68;;;17.20;79.80;;;;;;5008139;28;20246;-66
2023/03/31 08:58:06;;;;;;;45.17;7.55;;;17.30;79.90;;;;;;5022979;28;20213;-66
2023/03/31 09:01:07;;;;;;;94.72;12.60;;;17.30;79.70;;;;;;5026762;28;20293;-67
2023/03/31 09:04:16;;;;;;;120.65;15.18;;;17.30;79.50;;;;;;5030396;28;20281;-66
2023/03/31 09:07:13;;;;;;;100.47;12.95;;;17.30;80.20;;;;;;5033264;28;20762;-64
2023/03/31 09:10:14;;;;;;;173.40;18.67;;;17.30;79.90;;;;;;5033538;28;20222;-66
2023/03/31 09:13:10;;;;;;;105.25;16.52;;;17.30;79.70;;;;;;5033508;28;20197;-65
2023/03/31 09:16:05;;;;;;;42.42;8.02;;;17.30;79.60;;;;;;5033445;28;20290;-66
2023/03/31 09:18:59;;;;;;;70.53;9.75;;;17.20;88.20;;;;;;5009757;28;20202;-66
2023/03/31 09:21:51;;;;;;;57.63;10.20;;;17.30;79.50;;;;;;5013457;28;20222;-67
2023/03/31 09:24:47;;;;;;;76.55;13.68;;;17.40;79.70;;;;;;5028744;28;20296;-67
2023/03/31 09:27:36;;;;;;;38.13;5.80;;;17.40;79.90;;;;;;5031718;28;20268;-68
2023/03/31 09:30:27;;;;;;;44.90;7.10;;;17.40;79.60;;;;;;5032763;28;20214;-66
2023/03/31 09:33:18;;;;;;;24.75;6.28;;;17.40;79.60;;;;;;5032202;28;20193;-66
2023/03/31 09:36:14;;;;;;;25.20;6.30;;;17.40;79.70;;;;;;5032671;28;20204;-67
2023/03/31 09:39:04;;;;;;;20.30;4.22;;;17.00;91.20;;;;;;5032804;28;20229;-66
2023/03/31 09:41:54;;;;;;;18.23;4.03;;;17.40;79.80;;;;;;5032502;28;20288;-66
2023/03/31 09:44:45;;;;;;;11.68;3.13;;;17.40;79.60;;;;;;5032899;28;20206;-66
2023/03/31 09:47:38;;;;;;;19.65;3.35;;;17.40;79.70;;;;;;5034456;28;20224;-67
2023/03/31 09:50:29;;;;;;;18.85;4.50;;;17.40;79.70;;;;;;5032064;28;20226;-67
2023/03/31 09:53:21;;;;;;;18.27;3.10;;;17.40;79.90;;;;;;5031312;28;20205;-67
2023/03/31 09:56:10;;;;;;;18.42;3.47;;;17.40;79.80;;;;;;5032589;28;20198;-65
2023/03/31 09:59:02;;;;;;;17.58;4.85;;;17.30;91.80;;;;;;5015949;28;20195;-67
2023/03/31 10:01:53;;;;;;;16.02;3.67;;;18.40;81.10;;;;;;5016357;28;20203;-70
2023/03/31 10:04:45;;;;;;;20.30;3.65;;;17.40;80.10;;;;;;5015823;28;20749;-69
2023/03/31 10:07:35;;;;;;;17.08;2.65;;;17.40;80.00;;;;;;5015012;28;20325;-67
2023/03/31 10:10:30;;;;;;;14.90;2.88;;;17.40;80.00;;;;;;5015361;28;20222;-68
2023/03/31 10:13:22;;;;;;;14.57;3.13;;;17.40;80.20;;;;;;5015575;28;20198;-69
2023/03/31 10:16:13;;;;;;;12.70;3.13;;;17.50;80.20;;;;;;5015518;28;20194;-67
2023/03/31 10:19:20;;;;;;;13.35;2.90;;;17.50;91.80;;;;;;5017017;28;20234;-69
2023/03/31 10:22:16;;;;;;;11.73;2.80;;;17.40;80.10;;;;;;5015032;28;20229;-70
2023/03/31 10:25:15;;;;;;;10.52;3.63;;;17.40;80.30;;;;;;5031966;28;20284;-67
2023/03/31 10:28:04;;;;;;;11.00;3.60;;;17.40;80.40;;;;;;5035901;28;20295;-69
2023/03/31 10:30:54;;;;;;;15.98;3.45;;;17.40;80.50;;;;;;5035549;28;20217;-68
2023/03/31 10:33:45;;;;;;;9.80;2.90;;;17.40;80.50;;;;;;5015653;28;20253;-70
2023/03/31 10:36:34;;;;;;;7.85;2.55;;;17.40;80.70;;;;;;5016708;28;20202;-66
2023/03/31 10:39:30;;;;;;;10.10;2.22;;;17.40;81.00;;;;;;5016290;28;20289;-70
2023/03/31 10:42:22;;;;;;;4.82;2.05;;;17.40;81.00;;;;;;5016877;28;20214;-70
2023/03/31 10:45:12;;;;;;;6.70;2.08;;;17.40;80.80;;;;;;5016126;28;20210;-70
2023/03/31 10:48:25;;;;;;;12.88;4.65;;;17.40;81.10;;;;;;5015481;28;20594;-67
2023/03/31 10:51:17;;;;;;;10.30;3.80;;;17.40;81.00;;;;;;5015333;28;20227;-67
2023/03/31 10:54:08;;;;;;;10.88;3.75;;;17.50;80.90;;;;;;5015313;28;20205;-68
2023/03/31 10:57:00;;;;;;;10.15;3.97;;;18.30;81.30;;;;;;5018528;28;20268;-71
2023/03/31 11:00:04;;;;;;;11.55;2.42;;;17.60;81.00;;;;;;5033632;28;20230;-72
2023/03/31 11:03:18;;;;;;;15.98;4.03;;;17.50;81.10;;;;;;5033980;28;20678;-71
2023/03/31 11:06:11;;;;;;;9.35;2.42;;;17.50;81.00;;;;;;5034502;28;20213;-68
2023/03/31 11:09:11;;;;;;;7.50;2.28;;;17.50;81.20;;;;;;5034035;28;20233;-71
2023/03/31 11:12:09;;;;;;;6.15;2.05;;;17.50;80.90;;;;;;5033952;28;20213;-70
2023/03/31 11:15:10;;;;;;;10.00;1.85;;;17.50;80.90;;;;;;5033395;28;20197;-69
2023/03/31 11:18:09;;;;;;;13.70;2.55;;;17.50;80.90;;;;;;5027653;28;20344;-67
2023/03/31 11:21:07;;;;;;;8.63;2.83;;;17.50;81.10;;;;;;5031723;28;20638;-68
2023/03/31 11:24:05;;;;;;;6.88;1.98;;;17.50;81.00;;;;;;5033282;28;20304;-69
2023/03/31 11:27:02;;;;;;;14.38;4.45;;;17.40;81.20;;;;;;5031862;28;20241;-71
2023/03/31 11:29:56;;;;;;;13.85;2.88;;;17.50;82.20;;;;;;5031867;28;20218;-69
2023/03/31 11:32:58;;;;;;;4.72;1.80;;;17.50;82.70;;;;;;5032344;28;20268;-70
2023/03/31 11:35:59;;;;;;;9.45;2.15;;;17.40;83.30;;;;;;5032436;28;20200;-68
2023/03/31 11:38:59;;;;;;;7.47;1.73;;;17.50;82.80;;;;;;5033080;28;20194;-69
2023/03/31 11:41:50;;;;;;;6.55;1.40;;;17.40;82.90;;;;;;5033275;28;20268;-70
2023/03/31 11:44:42;;;;;;;5.22;1.88;;;17.50;82.80;;;;;;5033059;28;20299;-67
2023/03/31 11:47:36;;;;;;;5.68;1.92;;;17.50;82.80;;;;;;5033661;28;20202;-70
2023/03/31 11:50:30;;;;;;;7.85;2.08;;;18.60;83.70;;;;;;5032157;28;20317;-70
2023/03/31 11:53:24;;;;;;;5.05;2.08;;;17.50;82.60;;;;;;5033059;28;20230;-71
2023/03/31 11:56:14;;;;;;;7.15;1.80;;;17.50;82.80;;;;;;5012912;28;20273;-70
2023/03/31 11:59:05;;;;;;;10.43;2.10;;;17.40;92.30;;;;;;5011732;28;20221;-69
2023/03/31 12:02:02;;;;;;;3.40;1.63;;;17.40;82.40;;;;;;5010542;28;20281;-69
2023/03/31 12:04:54;;;;;;;4.25;1.50;;;17.50;82.80;;;;;;5012449;28;20257;-71
2023/03/31 12:07:48;;;;;;;10.48;1.90;;;17.50;82.50;;;;;;5026479;28;20210;-73
2023/03/31 12:10:39;;;;;;;10.20;1.77;;;17.60;81.70;;;;;;5031922;28;20302;-71
2023/03/31 12:13:38;;;;;;;12.05;1.90;;;17.60;82.00;;;;;;5032249;28;20661;-72
2023/03/31 12:16:35;;;;;;;5.68;1.65;;;17.60;82.30;;;;;;5032266;28;20212;-72
2023/03/31 12:19:28;;;;;;;6.07;2.13;;;17.60;82.20;;;;;;5032034;28;20222;-71
2023/03/31 12:22:19;;;;;;;7.47;2.05;;;17.60;82.30;;;;;;5032129;28;20233;-69
2023/03/31 12:25:12;;;;;;;5.05;1.83;;;17.50;82.10;;;;;;5031545;28;20709;-68
2023/03/31 12:28:01;;;;;;;9.77;2.53;;;17.50;82.30;;;;;;5032880;28;20205;-69
2023/03/31 12:30:50;;;;;;;3.33;1.75;;;17.50;82.40;;;;;;5031740;28;20311;-69
2023/03/31 12:33:44;;;;;;;5.38;1.95;;;17.50;82.30;;;;;;5021267;28;20199;-69
2023/03/31 12:36:51;;;;;;;5.55;1.70;;;17.50;82.50;;;;;;5011436;28;20206;-70
2023/03/31 12:39:54;;;;;;;10.18;1.77;;;17.40;82.70;;;;;;5019638;28;20229;-68
2023/03/31 12:42:59;;;;;;;3.05;1.52;;;17.40;82.70;;;;;;5029108;28;20296;-69
2023/03/31 12:45:55;;;;;;;6.05;1.63;;;17.20;91.30;;;;;;5028410;28;20660;-67
2023/03/31 12:48:58;;;;;;;7.25;2.05;;;17.40;84.50;;;;;;5031791;28;20328;-68
2023/03/31 12:51:59;;;;;;;4.93;1.75;;;17.40;84.20;;;;;;5029976;28;20390;-70
2023/03/31 12:55:01;;;;;;;4.03;2.35;;;17.40;85.20;;;;;;5032233;28;20202;-71
2023/03/31 12:57:51;;;;;;;2.60;1.50;;;17.40;85.00;;;;;;5030642;28;20202;-67
2023/03/31 13:01:05;;;;;;;4.38;1.80;;;17.40;84.60;;;;;;5030400;28;20234;-67
2023/03/31 13:04:08;;;;;;;5.63;1.83;;;17.40;85.90;;;;;;5027951;28;20225;-66
2023/03/31 13:06:58;;;;;;;6.35;1.67;;;17.40;85.70;;;;;;5031862;28;20617;-68
2023/03/31 13:09:51;;;;;;;3.13;1.58;;;17.40;86.40;;;;;;5032299;28;20698;-68
2023/03/31 13:12:40;;;;;;;2.63;2.00;;;17.30;86.90;;;;;;5032361;28;20261;-67
2023/03/31 13:15:28;;;;;;;4.38;1.88;;;17.30;86.70;;;;;;5029579;28;20213;-66
2023/03/31 13:18:21;;;;;;;5.25;1.85;;;17.30;87.10;;;;;;5013835;28;20577;-68
2023/03/31 13:21:11;;;;;;;4.22;3.25;;;17.30;87.20;;;;;;5014263;28;20669;-67
2023/03/31 13:24:01;;;;;;;3.10;1.27;;;17.30;87.30;;;;;;5013978;28;20219;-68
2023/03/31 13:26:49;;;;;;;2.00;1.42;;;17.30;87.50;;;;;;5013324;28;20694;-67
2023/03/31 13:29:42;;;;;;;4.10;1.50;;;17.40;87.70;;;;;;5014329;28;20236;-68
2023/03/31 13:32:30;;;;;;;3.63;1.30;;;17.30;87.30;;;;;;5013142;28;20249;-67
2023/03/31 13:35:25;;;;;;;4.15;1.30;;;17.20;86.40;;;;;;5013630;28;20285;-67
2023/03/31 13:38:22;;;;;;;3.42;1.30;;;17.20;86.00;;;;;;5013022;28;20257;-66
2023/03/31 13:41:27;;;;;;;1.70;1.58;;;17.30;85.90;;;;;;5014174;28;20293;-66
2023/03/31 13:44:37;;;;;;;3.15;1.00;;;17.20;85.60;;;;;;5014036;28;20218;-67
2023/03/31 13:47:45;;;;;;;2.08;1.17;;;17.20;85.50;;;;;;5014872;28;20246;-68
2023/03/31 13:50:49;;;;;;;2.67;1.08;;;17.20;85.60;;;;;;5013732;28;20218;-68
2023/03/31 13:54:03;;;;;;;4.20;1.70;;;17.20;85.60;;;;;;5013092;28;20277;-67
2023/03/31 13:57:00;;;;;;;3.10;2.20;;;17.20;85.50;;;;;;5016124;28;20204;-66
2023/03/31 14:00:15;;;;;;;4.47;2.33;;;17.20;85.30;;;;;;5032068;28;20225;-67
2023/03/31 14:03:20;;;;;;;1.95;1.15;;;17.20;85.50;;;;;;5032221;28;20202;-66
2023/03/31 14:06:19;;;;;;;1.38;1.10;;;17.20;85.20;;;;;;5032245;28;20208;-66
2023/03/31 14:09:10;;;;;;;1.60;0.95;;;17.10;94.20;;;;;;5032275;28;20202;-66
2023/03/31 14:11:58;;;;;;;1.98;1.05;;;17.10;85.50;;;;;;5031085;28;20225;-70
2023/03/31 14:14:46;;;;;;;2.17;1.17;;;17.10;85.50;;;;;;5033075;28;20194;-67
2023/03/31 14:17:38;;;;;;;2.00;1.00;;;17.10;85.60;;;;;;5032970;28;20210;-65
2023/03/31 14:20:33;;;;;;;6.00;0.90;;;17.00;85.30;;;;;;5032932;28;20214;-66
2023/03/31 14:23:35;;;;;;;2.15;1.10;;;17.10;85.90;;;;;;5031942;28;20221;-65
2023/03/31 14:26:45;;;;;;;2.70;0.88;;;17.10;85.80;;;;;;5032831;28;20197;-67
2023/03/31 14:29:42;;;;;;;5.20;1.10;;;17.10;86.10;;;;;;5031781;28;20229;-67
2023/03/31 14:32:38;;;;;;;6.05;1.10;;;17.10;86.20;;;;;;5032045;28;20198;-64
2023/03/31 14:35:37;;;;;;;3.63;1.02;;;17.10;85.80;;;;;;5032719;28;20240;-67
2023/03/31 14:38:29;;;;;;;2.25;1.00;;;17.00;85.70;;;;;;5032053;28;20216;-67
2023/03/31 14:41:28;;;;;;;1.73;0.90;;;17.10;85.70;;;;;;5032320;28;20214;-70
2023/03/31 14:44:18;;;;;;;2.05;0.90;;;17.00;85.50;;;;;;5031505;28;20272;-68
2023/03/31 14:47:06;;;;;;;2.30;0.90;;;17.00;85.40;;;;;;5036336;28;20197;-66
2023/03/31 14:50:02;;;;;;;1.63;0.80;;;17.00;85.30;;;;;;5036230;28;20376;-65
2023/03/31 14:52:53;;;;;;;3.15;1.35;;;17.00;85.20;;;;;;5035184;28;20202;-65
2023/03/31 14:55:44;;;;;;;1.77;0.90;;;17.00;85.20;;;;;;5035459;28;20194;-65